Time;durP1;ratioP1;P1;durP2;ratioP2;P2;SDS_P1;SDS_P2;PMS_P1;PMS_P2;Temp;Humidity;BMP_temperature;BMP_pressure;BME280_temperature;BME280_humidity;BME280_pressure;Samples;Min_cycle;Max_cycle;Signal;HPM_P1;HPM_P2
2024/02/07 00:00:19;;;;;;;3.67;1.80;;;;;;;-1.65;70.49;97540.28;4988093;28;20065;-47
2024/02/07 00:02:45;;;;;;;4.97;2.00;;;;;;;-2.03;71.07;97530.00;4988013;28;20042;-45
2024/02/07 00:05:11;;;;;;;4.13;2.40;;;;;;;-2.59;71.82;97473.38;4987332;28;20054;-44
2024/02/07 00:07:37;;;;;;;6.10;2.45;;;;;;;-2.18;72.33;97531.97;5004976;28;20049;-47
2024/02/07 00:10:04;;;;;;;3.72;1.92;;;;;;;-2.29;72.23;97538.13;4984400;28;20514;-48
2024/02/07 00:12:30;;;;;;;3.63;2.05;;;;;;;-2.47;72.66;97546.94;5005504;28;20048;-49
2024/02/07 00:14:56;;;;;;;3.78;1.90;;;;;;;-2.85;72.94;97508.56;5001606;28;20073;-45
2024/02/07 00:17:22;;;;;;;6.95;2.30;;;;;;;-2.97;73.31;97509.59;4991713;28;20572;-47
2024/02/07 00:19:50;;;;;;;3.28;1.50;;;;;;;-2.70;73.58;97547.31;4974599;28;20038;-44
2024/02/07 00:22:16;;;;;;;8.13;2.92;;;;;;;-3.01;73.84;97505.44;4991618;28;20131;-47
2024/02/07 00:24:43;;;;;;;6.18;2.40;;;;;;;-2.65;73.79;97552.31;4991442;28;20125;-47
2024/02/07 00:27:08;;;;;;;7.22;2.30;;;;;;;-2.60;73.74;97541.19;4971839;28;20034;-50
2024/02/07 00:29:36;;;;;;;3.53;1.77;;;;;;;-2.56;73.62;97536.88;4997654;28;20414;-46
2024/02/07 00:32:02;;;;;;;4.38;2.47;;;;;;;-2.74;73.76;97539.75;4974074;28;20050;-46
2024/02/07 00:34:29;;;;;;;5.72;2.50;;;;;;;-2.97;73.82;97539.25;4989312;28;20799;-45
2024/02/07 00:36:55;;;;;;;3.97;1.70;;;;;;;-3.08;74.02;97516.53;5004116;28;20038;-46
2024/02/07 00:39:21;;;;;;;5.47;2.83;;;;;;;-2.95;74.30;97546.00;4991438;28;20049;-46
2024/02/07 00:41:48;;;;;;;8.93;3.25;;;;;;;-3.24;74.74;97503.22;5006862;28;20038;-44
2024/02/07 00:44:14;;;;;;;4.88;2.20;;;;;;;-2.80;74.13;97543.22;5007402;28;20434;-46
2024/02/07 00:46:41;;;;;;;9.25;3.00;;;;;;;-3.06;73.84;97482.63;4990554;28;20108;-47
2024/02/07 00:49:13;;;;;;;6.03;2.08;;;;;;;-2.85;73.77;97528.91;4982622;28;20046;-47
2024/02/07 00:51:39;;;;;;;5.90;2.38;;;;;;;-3.09;74.07;97527.59;4978554;28;20602;-45
2024/02/07 00:54:05;;;;;;;6.18;2.30;;;;;;;-3.09;74.18;97523.31;4987455;28;20038;-46
2024/02/07 00:56:35;;;;;;;6.70;2.90;;;;;;;-3.15;74.71;97515.81;4995391;28;20044;-45
2024/02/07 00:59:01;;;;;;;4.03;2.13;;;;;;;-2.83;74.43;97529.75;4994773;28;20134;-45
2024/02/07 01:01:27;;;;;;;5.45;2.40;;;;;;;-3.15;74.09;97489.56;4993609;28;20096;-45
2024/02/07 01:03:53;;;;;;;4.32;2.20;;;;;;;-2.82;74.33;97539.00;5008167;28;20046;-46
2024/02/07 01:06:19;;;;;;;4.53;2.40;;;;;;;-3.00;74.17;97530.00;4997046;28;20066;-47
2024/02/07 01:08:45;;;;;;;8.27;3.25;;;;;;;-3.28;74.32;97503.31;4955012;28;20046;-46
2024/02/07 01:11:10;;;;;;;6.07;2.65;;;;;;;-3.49;74.68;97471.44;4977013;28;20044;-47
2024/02/07 01:13:36;;;;;;;5.55;2.65;;;;;;;-3.07;74.25;97534.31;5006721;28;20045;-45
2024/02/07 01:16:03;;;;;;;5.50;2.22;;;;;;;-3.17;74.15;97534.47;5008018;28;20120;-46
2024/02/07 01:18:29;;;;;;;4.78;2.28;;;;;;;-3.30;74.35;97505.88;4986456;28;20049;-47
2024/02/07 01:20:55;;;;;;;6.32;2.17;;;;;;;-3.20;74.27;97532.00;4993388;28;20354;-46
2024/02/07 01:23:21;;;;;;;5.25;2.63;;;;;;;-3.57;74.30;97491.03;4998494;28;20862;-47
2024/02/07 01:25:47;;;;;;;8.02;3.00;;;;;;;-3.47;74.56;97523.06;4984785;28;20041;-49
2024/02/07 01:28:15;;;;;;;7.35;3.05;;;;;;;-3.32;75.11;97514.38;4983661;28;20604;-45
2024/02/07 01:30:41;;;;;;;7.95;3.33;;;;;;;-3.53;74.33;97492.66;4977401;28;20038;-49
2024/02/07 01:33:07;;;;;;;5.95;2.72;;;;;;;-3.28;74.92;97511.78;4967254;28;20049;-46
2024/02/07 01:35:33;;;;;;;8.05;3.67;;;;;;;-3.24;74.60;97510.84;4989780;28;20429;-44
2024/02/07 01:38:07;;;;;;;5.47;2.80;;;;;;;-3.24;74.70;97510.84;5006654;28;20145;-46
2024/02/07 01:40:42;;;;;;;5.75;2.78;;;;;;;-3.50;74.79;97455.38;4973297;28;20069;-49
2024/02/07 01:43:11;;;;;;;6.38;2.72;;;;;;;-3.29;74.45;97494.00;5005354;28;20099;-47
2024/02/07 01:45:39;;;;;;;5.17;3.07;;;;;;;-3.26;74.79;97499.91;4974199;28;20045;-48
2024/02/07 01:48:07;;;;;;;5.70;2.83;;;;;;;-3.28;74.62;97488.06;4985427;28;20588;-46
2024/02/07 01:50:35;;;;;;;7.65;2.88;;;;;;;-3.35;74.74;97481.41;4970128;28;20081;-47
2024/02/07 01:53:03;;;;;;;7.67;3.03;;;;;;;-3.32;74.43;97474.59;4998093;28;20049;-44
2024/02/07 01:55:30;;;;;;;7.38;3.53;;;;;;;-3.37;74.55;97470.44;5006096;28;20038;-46
2024/02/07 01:57:57;;;;;;;5.05;2.50;;;;;;;-3.41;74.22;97462.03;4989402;28;20034;-47
2024/02/07 02:00:24;;;;;;;6.15;2.63;;;;;;;-3.40;74.55;97473.84;5007446;28;20689;-45
2024/02/07 02:02:52;;;;;;;6.10;3.00;;;;;;;-3.54;74.68;97448.66;4989470;28;20037;-46
2024/02/07 02:05:18;;;;;;;5.07;2.55;;;;;;;-3.45;74.36;97481.53;5007057;28;20045;-48
2024/02/07 02:07:45;;;;;;;7.95;2.65;;;;;;;-3.53;74.36;97469.81;4999531;28;20101;-49
2024/02/07 02:10:11;;;;;;;7.10;2.55;;;;;;;-3.58;74.46;97469.88;4970537;28;20038;-47
2024/02/07 02:12:38;;;;;;;5.97;2.67;;;;;;;-3.85;74.16;97439.78;4974507;28;20045;-44
2024/02/07 02:15:08;;;;;;;6.93;3.05;;;;;;;-3.65;75.07;97473.34;4999574;28;20072;-46
2024/02/07 02:17:35;;;;;;;6.85;2.85;;;;;;;-3.85;74.63;97438.09;4989448;28;20092;-45
2024/02/07 02:20:04;;;;;;;5.72;3.17;;;;;;;-3.81;75.27;97460.88;5001030;28;20038;-46
2024/02/07 02:22:38;;;;;;;7.75;3.80;;;;;;;-3.76;75.51;97459.97;4990196;28;20048;-45
2024/02/07 02:25:34;;;;;;;6.88;3.53;;;;;;;-3.77;75.00;97454.94;5004834;28;20073;-46
2024/02/07 02:28:25;;;;;;;9.68;3.97;;;;;;;-3.69;74.91;97450.56;5003476;28;20529;-46
2024/02/07 02:30:55;;;;;;;6.75;3.30;;;;;;;-3.74;74.69;97448.09;4994461;28;20167;-49
2024/02/07 02:33:23;;;;;;;5.72;3.00;;;;;;;-3.72;75.02;97443.03;4988854;28;20037;-45
2024/02/07 02:35:49;;;;;;;6.15;2.72;;;;;;;-4.03;74.72;97402.00;5003178;28;20110;-49
2024/02/07 02:38:18;;;;;;;6.30;3.30;;;;;;;-3.91;74.45;97422.94;4989051;28;20434;-50
2024/02/07 02:40:44;;;;;;;6.90;3.20;;;;;;;-3.82;74.48;97429.59;4989393;28;20038;-49
2024/02/07 02:43:10;;;;;;;5.75;3.17;;;;;;;-3.81;74.68;97438.88;5004232;28;20137;-46
2024/02/07 02:45:36;;;;;;;6.75;3.10;;;;;;;-3.80;74.65;97452.41;5005412;28;20045;-47
2024/02/07 02:48:03;;;;;;;8.80;3.30;;;;;;;-3.85;74.28;97452.47;4997984;28;20038;-45
2024/02/07 02:50:31;;;;;;;5.78;2.95;;;;;;;-3.86;74.82;97449.09;4985505;28;20140;-44
2024/02/07 02:52:58;;;;;;;10.35;3.50;;;;;;;-3.88;74.40;97445.78;4979621;28;20536;-47
2024/02/07 02:55:25;;;;;;;6.90;3.33;;;;;;;-4.14;74.15;97407.22;5004007;28;20048;-46
2024/02/07 02:57:51;;;;;;;8.13;3.60;;;;;;;-3.88;74.25;97437.31;4971703;28;20041;-48
2024/02/07 03:00:20;;;;;;;7.53;3.70;;;;;;;-4.10;74.34;97408.00;4990406;28;20045;-45
2024/02/07 03:02:46;;;;;;;8.35;3.25;;;;;;;-3.89;74.01;97444.09;4986914;28;20038;-49
2024/02/07 03:05:37;;;;;;;7.88;3.17;;;;;;;-4.10;74.31;97405.47;4990789;28;20041;-48
2024/02/07 03:10:38;;;;;;;5.63;3.13;;;;;;;-3.93;73.95;97431.47;4998384;28;20044;-46
2024/02/07 03:13:04;;;;;;;5.90;2.72;;;;;;;-3.90;73.72;97439.88;4999651;28;20099;-45
2024/02/07 03:15:32;;;;;;;10.10;3.83;;;;;;;-3.98;73.99;97440.84;4966654;28;20045;-43
2024/02/07 03:17:58;;;;;;;8.77;3.65;;;;;;;-4.00;74.16;97434.94;4998077;28;20184;-44
2024/02/07 03:20:24;;;;;;;7.10;3.40;;;;;;;-4.04;74.97;97431.59;4995209;28;20054;-45
2024/02/07 03:22:51;;;;;;;5.25;2.80;;;;;;;-4.25;74.68;97388.75;4969082;28;20569;-46
2024/02/07 03:25:17;;;;;;;7.80;3.20;;;;;;;-4.10;74.98;97413.06;4993340;28;20069;-43
2024/02/07 03:27:44;;;;;;;6.93;3.80;;;;;;;-4.03;74.91;97420.56;4994677;28;20045;-46
2024/02/07 03:30:20;;;;;;;6.18;2.65;;;;;;;-4.00;75.27;97409.56;4988154;28;20045;-45
2024/02/07 03:32:46;;;;;;;7.68;3.88;;;;;;;-3.92;75.18;97402.66;5005853;28;20053;-46
2024/02/07 03:35:14;;;;;;;8.13;3.33;;;;;;;-3.85;74.96;97411.88;4982864;28;20037;-49
2024/02/07 03:37:40;;;;;;;8.23;3.45;;;;;;;-4.02;75.25;97376.59;4994047;28;20042;-46
2024/02/07 03:40:12;;;;;;;7.20;3.38;;;;;;;-3.78;75.11;97393.19;4989760;28;20129;-45
2024/02/07 03:42:39;;;;;;;6.38;3.38;;;;;;;-3.68;74.45;97404.03;4991704;28;20207;-45
2024/02/07 03:45:07;;;;;;;4.95;2.65;;;;;;;-3.64;74.43;97400.56;4961038;28;20038;-44
2024/02/07 03:47:34;;;;;;;5.25;2.80;;;;;;;-3.68;74.49;97398.94;4996046;28;20042;-46
2024/02/07 03:50:04;;;;;;;7.68;3.30;;;;;;;-3.90;73.79;97358.66;4988684;28;20111;-49
2024/02/07 03:52:31;;;;;;;4.72;2.88;;;;;;;-3.79;73.98;97376.25;5000206;28;20045;-46
2024/02/07 03:54:57;;;;;;;7.40;3.53;;;;;;;-3.91;73.57;97354.44;4996323;28;20155;-44
2024/02/07 03:57:23;;;;;;;6.78;3.55;;;;;;;-4.15;73.84;97314.22;4998551;28;20498;-48
2024/02/07 03:59:49;;;;;;;4.78;2.90;;;;;;;-3.73;73.53;97378.72;4995250;28;20168;-47
2024/02/07 04:02:21;;;;;;;5.35;2.88;;;;;;;-3.74;73.59;97378.72;4996092;28;20037;-44
2024/02/07 04:04:51;;;;;;;4.90;2.67;;;;;;;-3.74;73.86;97369.41;4981085;28;20107;-49
2024/02/07 04:07:23;;;;;;;4.28;2.35;;;;;;;-3.77;73.39;97369.47;4997822;28;20399;-47
2024/02/07 04:09:49;;;;;;;6.43;2.88;;;;;;;-3.79;73.45;97368.66;4998326;28;20054;-50
2024/02/07 05:17:20;;;;;;;8.02;3.63;;;;;;;-2.36;71.09;97298.28;4993847;28;20038;-47
2024/02/07 05:19:50;;;;;;;7.10;3.75;;;;;;;-2.32;70.95;97284.59;5001028;28;20034;-46
2024/02/07 05:22:17;;;;;;;7.10;3.28;;;;;;;-2.21;70.82;97289.47;4983480;28;20042;-48
2024/02/07 05:24:45;;;;;;;7.22;3.40;;;;;;;-2.18;70.74;97285.13;4995907;28;20057;-45
2024/02/07 05:27:12;;;;;;;6.65;3.45;;;;;;;-2.34;70.42;97253.25;4977416;28;20670;-50
2024/02/07 05:29:42;;;;;;;7.88;3.60;;;;;;;-2.11;70.68;97272.28;4986881;28;20134;-47
2024/02/07 05:32:09;;;;;;;14.30;4.65;;;;;;;-2.07;70.67;97274.72;4997508;28;20604;-45
2024/02/07 05:34:35;;;;;;;11.77;3.80;;;;;;;-2.26;70.03;97235.28;5000897;28;20041;-46
2024/02/07 05:37:02;;;;;;;7.78;4.35;;;;;;;-2.04;70.15;97266.19;4979255;28;20077;-47
2024/02/07 05:39:31;;;;;;;8.75;3.60;;;;;;;-2.23;70.08;97225.03;5001153;28;20811;-48
2024/02/07 05:41:58;;;;;;;9.23;4.15;;;;;;;-1.96;70.05;97247.31;5001391;28;20038;-46
2024/02/07 05:44:24;;;;;;;10.52;4.30;;;;;;;-1.85;69.87;97235.16;4976364;28;20474;-46
2024/02/07 05:46:50;;;;;;;15.07;4.20;;;;;;;-1.81;69.83;97231.66;5001768;28;20056;-47
2024/02/07 05:49:16;;;;;;;8.73;3.97;;;;;;;-1.96;69.89;97198.09;4993543;28;20359;-48
2024/02/07 05:51:42;;;;;;;15.65;4.45;;;;;;;-2.09;69.75;97184.81;4994434;28;20628;-44
2024/02/07 05:54:08;;;;;;;10.18;4.53;;;;;;;-2.00;69.71;97221.97;4978142;28;20620;-45
2024/02/07 05:56:34;;;;;;;9.07;4.28;;;;;;;-2.24;70.05;97178.41;5000506;28;20144;-47
2024/02/07 05:59:01;;;;;;;14.63;5.03;;;;;;;-2.03;70.04;97209.28;4991109;28;20053;-48
2024/02/07 06:01:27;;;;;;;10.80;4.50;;;;;;;-1.98;70.16;97202.38;4985830;28;20038;-45
2024/02/07 06:03:53;;;;;;;8.02;4.18;;;;;;;-2.05;70.15;97172.88;4998352;28;20034;-46
2024/02/07 06:06:19;;;;;;;14.57;4.95;;;;;;;-1.78;69.81;97203.53;5001578;28;20426;-47
2024/02/07 06:08:49;;;;;;;12.70;4.80;;;;;;;-1.76;69.50;97208.63;4996621;28;20044;-48
2024/02/07 06:11:18;;;;;;;7.50;4.38;;;;;;;-1.71;69.95;97216.97;4977868;28;20073;-46
2024/02/07 06:13:44;;;;;;;11.02;4.57;;;;;;;-1.61;69.54;97204.84;4997163;28;20042;-45
2024/02/07 06:16:10;;;;;;;10.55;4.10;;;;;;;-1.62;69.48;97205.72;4994039;28;20050;-47
2024/02/07 06:18:36;;;;;;;10.85;4.80;;;;;;;-1.94;69.33;97174.28;5000183;28;20042;-45
2024/02/07 06:21:02;;;;;;;13.57;4.72;;;;;;;-1.95;69.30;97202.31;4967244;28;20034;-45
2024/02/07 06:23:28;;;;;;;10.27;4.63;;;;;;;-2.00;70.05;97204.13;4994170;28;20040;-46
2024/02/07 06:25:54;;;;;;;9.45;4.25;;;;;;;-2.31;70.22;97169.25;4994039;28;20499;-46
2024/02/07 06:28:20;;;;;;;12.93;5.55;;;;;;;-2.24;70.38;97185.19;4998660;28;20480;-45
2024/02/07 06:30:47;;;;;;;14.27;5.60;;;;;;;-2.24;70.51;97183.50;4991916;28;20046;-47
2024/02/07 06:33:13;;;;;;;12.68;5.05;;;;;;;-2.28;70.53;97171.72;4986102;28;20045;-46
2024/02/07 06:35:39;;;;;;;18.27;6.05;;;;;;;-2.18;70.58;97160.44;4995283;28;20568;-46
2024/02/07 06:38:05;;;;;;;15.15;5.53;;;;;;;-2.00;70.56;97161.72;4994912;28;20042;-46
2024/02/07 06:40:30;;;;;;;17.50;5.22;;;;;;;-2.03;70.19;97148.19;4994047;28;20044;-49
2024/02/07 06:42:57;;;;;;;13.50;6.40;;;;;;;-2.05;70.42;97145.72;4979913;28;20033;-44
2024/02/07 06:45:23;;;;;;;19.58;5.68;;;;;;;-2.10;70.47;97133.97;4964908;28;20537;-44
2024/02/07 06:47:49;;;;;;;21.05;6.28;;;;;;;-1.89;70.48;97130.88;4994098;28;20044;-44
2024/02/07 06:50:15;;;;;;;17.95;6.80;;;;;;;-2.03;70.51;97093.06;4992832;28;20141;-49
2024/02/07 06:52:41;;;;;;;15.52;6.20;;;;;;;-1.84;69.96;97116.31;4992669;28;20056;-45
2024/02/07 06:55:07;;;;;;;17.80;6.68;;;;;;;-1.65;69.67;97147.22;5005272;28;20040;-44
2024/02/07 06:57:34;;;;;;;14.52;5.80;;;;;;;-1.91;69.72;97107.19;4972910;28;20041;-45
2024/02/07 06:59:59;;;;;;;14.77;6.40;;;;;;;-1.98;69.32;97075.09;5006358;28;20118;-44
2024/02/07 07:02:26;;;;;;;11.23;4.90;;;;;;;-1.89;69.22;97121.53;5003775;28;20533;-45
2024/02/07 07:04:51;;;;;;;14.02;5.22;;;;;;;-2.07;69.46;97119.47;4985579;28;20050;-44
2024/02/07 07:07:17;;;;;;;11.35;5.20;;;;;;;-2.17;69.75;97100.22;4969441;28;20849;-47
2024/02/07 07:09:43;;;;;;;15.45;5.13;;;;;;;-2.41;69.81;97055.91;4956177;28;20430;-45
2024/02/07 07:12:12;;;;;;;16.42;6.15;;;;;;;-2.12;69.97;97095.84;4987989;28;20053;-43
2024/02/07 07:14:40;;;;;;;15.00;6.07;;;;;;;-1.96;69.80;97078.47;4988334;28;20049;-46
2024/02/07 07:17:07;;;;;;;12.37;5.60;;;;;;;-2.02;69.31;97066.72;5004849;28;20629;-46
2024/02/07 07:19:33;;;;;;;17.50;5.97;;;;;;;-1.91;69.67;97058.81;4962159;28;20046;-47
2024/02/07 07:21:59;;;;;;;11.60;4.50;;;;;;;-1.99;69.04;97048.00;4986265;28;20421;-45
2024/02/07 07:24:25;;;;;;;13.23;4.50;;;;;;;-2.26;69.41;97029.22;4973063;28;20546;-44
2024/02/07 07:26:51;;;;;;;11.63;4.78;;;;;;;-2.39;69.95;97022.75;4973013;28;20795;-44
2024/02/07 07:29:17;;;;;;;7.97;3.72;;;;;;;-2.32;69.70;97006.47;4994317;28;20132;-46
2024/02/07 07:31:44;;;;;;;10.20;4.43;;;;;;;-2.40;69.75;96998.19;4993598;28;20081;-46
2024/02/07 07:34:10;;;;;;;9.63;3.80;;;;;;;-2.18;69.85;97005.22;4988886;28;20065;-44
2024/02/07 07:36:37;;;;;;;12.57;4.70;;;;;;;-2.43;69.74;96981.31;4976286;28;20496;-44
2024/02/07 07:39:03;;;;;;;9.85;4.32;;;;;;;-2.32;69.44;97009.03;5009907;28;20128;-44
2024/02/07 07:41:29;;;;;;;16.02;5.30;;;;;;;-2.15;69.32;97063.66;5007615;28;20038;-46
2024/02/07 07:43:54;;;;;;;14.68;5.22;;;;;;;-2.26;69.22;97064.84;5008596;28;20096;-45
2024/02/07 07:46:20;;;;;;;11.82;4.88;;;;;;;-2.53;69.40;97012.13;5009071;28;20080;-45
2024/02/07 07:48:46;;;;;;;18.90;5.38;;;;;;;-2.43;69.27;97044.06;4980636;28;20124;-45
2024/02/07 07:51:15;;;;;;;12.73;5.30;;;;;;;-2.45;69.53;97033.94;5001768;28;20033;-44
2024/02/07 07:53:41;;;;;;;18.67;6.00;;;;;;;-2.42;69.72;97033.88;5004867;28;20038;-45
2024/02/07 07:56:07;;;;;;;8.98;3.53;;;;;;;-2.38;69.38;97032.91;4988311;28;20042;-45
2024/02/07 07:58:37;;;;;;;8.93;4.32;;;;;;;-2.31;69.51;97042.06;4972325;28;20514;-44
2024/02/07 08:01:05;;;;;;;9.68;3.70;;;;;;;-2.37;69.58;97036.28;5002791;28;20085;-45
2024/02/07 08:03:30;;;;;;;8.95;4.15;;;;;;;-2.24;69.57;97035.91;4991902;28;20798;-44
2024/02/07 08:05:56;;;;;;;10.63;4.60;;;;;;;-2.21;69.41;97037.56;5009578;28;20065;-44
2024/02/07 08:08:22;;;;;;;12.70;5.00;;;;;;;-2.32;69.58;96993.75;5007897;28;20049;-44
2024/02/07 08:10:48;;;;;;;12.27;5.93;;;;;;;-1.95;69.73;97013.97;5000998;28;20038;-46
2024/02/07 08:13:14;;;;;;;15.40;5.57;;;;;;;-1.87;69.61;96995.03;4989354;28;20469;-43
2024/02/07 08:15:40;;;;;;;12.75;4.78;;;;;;;-2.32;69.19;96928.47;4996997;28;20042;-45
2024/02/07 08:18:06;;;;;;;11.85;5.13;;;;;;;-2.05;69.74;96969.28;5007118;28;20128;-45
2024/02/07 08:20:32;;;;;;;13.77;5.07;;;;;;;-2.31;69.49;96925.03;4990669;28;20100;-45
2024/02/07 08:22:58;;;;;;;13.88;5.60;;;;;;;-2.18;71.28;96964.50;5009151;28;20153;-46
2024/02/07 08:25:24;;;;;;;16.63;4.88;;;;;;;-2.34;72.73;96909.84;5008117;28;20065;-46
2024/02/07 08:27:49;;;;;;;14.30;5.35;;;;;;;-2.23;72.41;96930.75;4985737;28;20415;-44
2024/02/07 08:30:15;;;;;;;13.88;4.97;;;;;;;-2.09;72.13;96970.25;4999638;28;20045;-47
2024/02/07 08:32:42;;;;;;;14.52;4.70;;;;;;;-2.27;71.81;96936.78;5008927;28;20042;-46
2024/02/07 08:35:08;;;;;;;13.45;5.18;;;;;;;-1.97;71.67;96969.88;5008938;28;20045;-44
2024/02/07 08:37:33;;;;;;;12.40;5.28;;;;;;;-2.18;70.76;96950.97;5006335;28;20091;-45
2024/02/07 08:40:00;;;;;;;6.72;3.38;;;;;;;-2.20;70.89;96933.19;5008053;28;20052;-46
2024/02/07 08:42:25;;;;;;;14.60;5.25;;;;;;;-2.64;70.39;96877.63;5008931;28;20041;-45
2024/02/07 08:44:51;;;;;;;12.90;4.45;;;;;;;-2.52;70.58;96886.66;5000443;28;20129;-44
2024/02/07 08:47:17;;;;;;;13.70;4.38;;;;;;;-2.44;70.49;96887.25;4989116;28;20533;-45
2024/02/07 08:49:43;;;;;;;11.30;4.90;;;;;;;-2.36;70.19;96875.19;4990383;28;20042;-45
2024/02/07 08:52:10;;;;;;;11.38;4.45;;;;;;;-2.50;69.79;96875.53;5008162;28;20540;-46
2024/02/07 08:54:36;;;;;;;14.23;5.90;;;;;;;-2.35;69.96;96871.72;4979574;28;20038;-44
2024/02/07 08:57:02;;;;;;;9.30;4.65;;;;;;;-2.16;69.68;96873.72;4997778;28;20042;-46
2024/02/07 08:59:28;;;;;;;13.25;5.53;;;;;;;-2.06;69.48;96896.34;4977428;28;20042;-44
2024/02/07 09:01:54;;;;;;;12.13;5.22;;;;;;;-2.03;69.27;96894.53;4984387;28;20039;-46
2024/02/07 09:04:20;;;;;;;12.07;4.88;;;;;;;-2.18;69.51;96841.56;4987705;28;20046;-45
2024/02/07 09:06:46;;;;;;;11.40;4.35;;;;;;;-2.13;69.00;96826.97;4958491;28;20049;-44
2024/02/07 09:09:11;;;;;;;16.80;7.18;;;;;;;-2.07;68.99;96834.44;5007236;28;20042;-49
2024/02/07 09:11:37;;;;;;;15.90;6.38;;;;;;;-1.81;68.86;96843.81;4990683;28;20072;-45
2024/02/07 09:14:03;;;;;;;21.38;8.07;;;;;;;-1.90;68.37;96833.94;5008434;28;20053;-43
2024/02/07 09:16:29;;;;;;;15.35;6.55;;;;;;;-1.94;68.36;96834.91;5006305;28;20048;-48
2024/02/07 09:18:55;;;;;;;15.02;5.72;;;;;;;-1.90;68.41;96822.03;4987907;28;20426;-46
2024/02/07 09:21:21;;;;;;;16.20;5.80;;;;;;;-2.17;68.35;96792.34;4990825;28;20095;-48
2024/02/07 09:23:48;;;;;;;11.90;5.10;;;;;;;-1.92;68.52;96800.03;5008244;28;20438;-45
2024/02/07 09:26:14;;;;;;;15.45;6.50;;;;;;;-1.96;68.50;96809.50;4999128;28;20054;-45
2024/02/07 09:28:39;;;;;;;13.68;5.20;;;;;;;-2.37;68.24;96723.44;4970424;28;20053;-46
2024/02/07 09:31:06;;;;;;;15.65;5.30;;;;;;;-2.04;68.39;96770.72;4998500;28;20046;-44
2024/02/07 09:33:32;;;;;;;11.20;4.75;;;;;;;-2.17;67.70;96738.91;4996429;28;20125;-43
2024/02/07 09:35:58;;;;;;;11.18;5.07;;;;;;;-2.16;68.13;96735.50;5002465;28;20042;-47
2024/02/07 09:38:26;;;;;;;11.20;4.35;;;;;;;-2.16;67.90;96721.06;4999253;28;20037;-44
2024/02/07 09:40:57;;;;;;;14.55;5.38;;;;;;;-2.11;68.28;96710.72;4985956;28;20104;-45
2024/02/07 09:43:23;;;;;;;11.85;4.18;;;;;;;-2.43;68.20;96660.03;4994658;28;20419;-44
2024/02/07 09:46:09;;;;;;;10.57;4.85;;;;;;;-2.41;68.91;96686.25;4988194;28;20046;-46
2024/02/07 09:48:36;;;;;;;14.18;6.20;;;;;;;-2.36;69.10;96687.78;4980452;28;20061;-45
2024/02/07 09:51:02;;;;;;;17.25;5.47;;;;;;;-2.25;69.27;96687.44;5003102;28;20042;-51
2024/02/07 09:53:29;;;;;;;14.40;5.25;;;;;;;-2.26;69.12;96670.50;4989181;28;20045;-44
2024/02/07 09:55:55;;;;;;;10.75;3.83;;;;;;;-2.20;68.73;96668.59;5004965;28;20084;-45
2024/02/07 09:58:21;;;;;;;13.52;5.13;;;;;;;-2.49;69.31;96617.84;5005380;28;20045;-46
2024/02/07 10:00:50;;;;;;;12.90;6.20;;;;;;;-2.40;69.34;96635.31;4983091;28;20046;-47
2024/02/07 10:03:17;;;;;;;15.02;6.70;;;;;;;-2.45;69.40;96627.03;4990906;28;20034;-45
2024/02/07 10:05:50;;;;;;;18.90;6.63;;;;;;;-2.29;70.30;96627.34;4990694;28;20433;-46
2024/02/07 10:08:16;;;;;;;17.35;6.22;;;;;;;-2.31;70.20;96607.06;4975731;28;20523;-47
2024/02/07 10:10:46;;;;;;;15.63;6.38;;;;;;;-2.63;69.94;96571.69;4998097;28;20505;-45
2024/02/07 10:13:14;;;;;;;17.70;6.78;;;;;;;-2.30;70.32;96585.81;4998159;28;20041;-45
2024/02/07 10:15:43;;;;;;;14.95;6.97;;;;;;;-2.29;70.84;96577.31;4979619;28;20041;-47
2024/02/07 10:18:10;;;;;;;19.27;6.45;;;;;;;-2.35;70.90;96554.63;4979922;28;20046;-45
2024/02/07 10:20:36;;;;;;;15.88;6.70;;;;;;;-2.26;70.90;96561.97;4992766;28;20529;-46
2024/02/07 10:23:08;;;;;;;13.75;4.88;;;;;;;-2.58;70.93;96508.81;4989218;28;20425;-48
2024/02/07 10:25:34;;;;;;;14.57;5.38;;;;;;;-2.67;71.00;96502.28;4987722;28;20050;-44
2024/02/07 10:28:06;;;;;;;12.55;5.07;;;;;;;-2.89;71.31;96486.13;4990149;28;20080;-45
2024/02/07 10:30:32;;;;;;;13.75;5.00;;;;;;;-2.73;72.04;96510.16;4996220;28;20038;-46
2024/02/07 10:32:59;;;;;;;12.18;4.47;;;;;;;-2.72;71.75;96514.31;4990414;28;20042;-46
2024/02/07 10:35:25;;;;;;;15.48;5.72;;;;;;;-2.92;71.66;96452.34;4999268;28;20042;-44
2024/02/07 10:37:53;;;;;;;15.05;6.05;;;;;;;-2.50;71.74;96486.47;4993919;28;20049;-45
2024/02/07 10:40:20;;;;;;;13.52;5.15;;;;;;;-2.71;71.62;96455.00;4995814;28;20033;-46
2024/02/07 10:42:54;;;;;;;17.10;6.10;;;;;;;-2.47;71.74;96460.97;4979619;28;20510;-47
2024/02/07 10:45:20;;;;;;;13.38;5.15;;;;;;;-2.71;71.50;96423.66;4993545;28;20046;-47
2024/02/07 10:47:46;;;;;;;17.40;5.63;;;;;;;-2.76;71.93;96413.66;4993110;28;20058;-44
2024/02/07 10:50:15;;;;;;;18.27;4.93;;;;;;;-2.79;71.86;96384.97;4974113;28;20116;-44
2024/02/07 10:52:43;;;;;;;12.02;5.53;;;;;;;-2.54;72.10;96413.75;5003694;28;20137;-47
2024/02/07 10:55:12;;;;;;;21.13;5.57;;;;;;;-2.85;72.07;96372.47;4992374;28;20099;-49
2024/02/07 10:57:39;;;;;;;13.35;5.03;;;;;;;-2.53;72.14;96412.88;4994601;28;20042;-47
2024/02/07 11:00:09;;;;;;;20.40;6.40;;;;;;;-2.72;72.28;96377.06;4995032;28;20039;-45
2024/02/07 11:02:34;;;;;;;;;;;;;;;-2.50;72.11;96402.56;4992430;28;20045;-49
2024/02/07 11:05:01;;;;;;;13.60;5.95;;;;;;;-2.49;72.30;96406.78;4998745;28;19921;-46
2024/02/07 11:07:31;;;;;;;16.08;6.20;;;;;;;-2.44;72.75;96416.78;4993128;28;20076;-47
2024/02/07 11:09:58;;;;;;;18.90;6.18;;;;;;;-2.30;73.11;96429.81;4992469;28;20042;-47
2024/02/07 11:12:24;;;;;;;14.85;5.93;;;;;;;-2.45;72.89;96390.53;4991768;28;20042;-52
2024/02/07 11:14:51;;;;;;;14.38;5.65;;;;;;;-2.24;73.02;96417.72;4979815;28;20041;-44
2024/02/07 11:17:18;;;;;;;11.20;5.35;;;;;;;-2.31;73.16;96398.50;4969658;28;20038;-50
2024/02/07 11:19:45;;;;;;;18.38;5.90;;;;;;;-2.26;73.15;96411.88;4999799;28;20042;-45
2024/02/07 11:22:34;;;;;;;12.88;6.15;;;;;;;-2.16;73.35;96415.75;4994760;28;20057;-46
2024/02/07 11:25:01;;;;;;;14.75;5.90;;;;;;;-2.13;73.31;96392.72;5017655;28;20125;-46
2024/02/07 11:27:29;;;;;;;17.27;5.80;;;;;;;-2.22;73.43;96380.34;5006051;28;20088;-49
2024/02/07 11:29:55;;;;;;;14.52;5.60;;;;;;;-2.15;73.49;96360.63;5003363;28;20124;-48
2024/02/07 11:32:21;;;;;;;13.63;5.18;;;;;;;-1.91;73.32;96402.94;5002890;28;20049;-44
2024/02/07 11:34:54;;;;;;;13.85;5.97;;;;;;;-1.89;73.74;96403.72;4979373;28;20042;-57
2024/02/07 11:37:21;;;;;;;13.77;5.72;;;;;;;-2.05;73.27;96378.91;4997383;28;20506;-46
2024/02/07 11:39:49;;;;;;;11.90;4.75;;;;;;;-1.87;73.30;96404.47;4992768;28;20048;-45
2024/02/07 11:42:16;;;;;;;18.23;6.07;;;;;;;-1.88;72.91;96391.78;4993879;28;20045;-48
2024/02/07 11:44:53;;;;;;;17.00;6.50;;;;;;;-1.87;73.28;96378.19;4979324;28;20047;-52
2024/02/07 11:47:32;;;;;;;16.52;6.57;;;;;;;-1.83;72.95;96367.81;4989610;28;20056;-45
2024/02/07 11:50:04;;;;;;;17.92;6.78;;;;;;;-1.92;72.99;96372.44;4967675;28;20112;-48
2024/02/07 11:52:33;;;;;;;20.55;7.20;;;;;;;-1.86;73.33;96342.50;4992463;28;20371;-48
2024/02/07 11:55:07;;;;;;;15.18;6.13;;;;;;;-1.82;73.49;96331.31;4986942;28;20425;-50
2024/02/07 11:57:33;;;;;;;15.10;6.15;;;;;;;-1.79;73.53;96327.81;4980006;28;20549;-50
2024/02/07 12:00:04;;;;;;;17.75;7.20;;;;;;;-1.74;73.60;96306.41;5004198;28;20045;-49
2024/02/07 12:02:36;;;;;;;16.25;7.00;;;;;;;-1.93;73.60;96259.63;5005259;28;20108;-48
2024/02/07 12:05:03;;;;;;;16.08;6.95;;;;;;;-1.64;73.43;96301.75;5004139;28;20104;-48
2024/02/07 12:07:30;;;;;;;16.35;6.57;;;;;;;-1.66;73.43;96289.97;4985479;28;20057;-49
2024/02/07 12:09:56;;;;;;;15.63;6.50;;;;;;;-1.73;73.60;96297.84;4981762;28;20045;-50
2024/02/07 12:12:22;;;;;;;14.55;6.35;;;;;;;-1.77;73.96;96287.84;4980756;28;20042;-48
2024/02/07 12:14:48;;;;;;;13.60;5.45;;;;;;;-2.21;73.80;96214.13;4997820;28;20556;-48
2024/02/07 12:17:15;;;;;;;13.13;5.85;;;;;;;-1.85;74.08;96277.16;5000153;28;20215;-45
2024/02/07 12:19:44;;;;;;;14.80;5.43;;;;;;;-1.92;74.17;96265.56;4997072;28;20506;-49
2024/02/07 12:22:19;;;;;;;14.40;6.20;;;;;;;-2.07;74.28;96266.16;4981383;28;20418;-52
2024/02/07 12:24:45;;;;;;;15.52;6.05;;;;;;;-2.14;74.89;96248.59;4988064;28;20549;-48
2024/02/07 12:27:15;;;;;;;17.50;6.80;;;;;;;-2.09;75.09;96239.97;5001371;28;20848;-48
2024/02/07 12:29:52;;;;;;;17.25;5.80;;;;;;;-2.04;74.93;96235.53;4980536;28;20045;-50
2024/02/07 12:32:19;;;;;;;15.95;6.60;;;;;;;-2.12;75.07;96220.56;4999217;28;20141;-49
2024/02/07 12:34:46;;;;;;;13.25;5.10;;;;;;;-2.33;75.43;96180.72;4997873;28;20389;-50
2024/02/07 12:37:17;;;;;;;13.25;5.68;;;;;;;-2.17;75.43;96194.47;4997414;28;20532;-50